createdAt,value
2018-05-29T00:00:06.146Z,25.60
2018-05-29T00:02:34.288Z,25.50
2018-05-29T00:05:02.417Z,25.50
2018-05-29T00:07:30.542Z,25.50
2018-05-29T00:09:58.669Z,25.50
2018-05-29T00:12:26.812Z,25.40
2018-05-29T00:14:54.928Z,25.40
2018-05-29T00:17:23.078Z,25.40
2018-05-29T00:19:52.428Z,25.30
2018-05-29T00:22:20.567Z,25.30
2018-05-29T00:24:48.701Z,25.30
2018-05-29T00:27:17.039Z,25.20
2018-05-29T00:29:45.170Z,25.10
2018-05-29T00:32:13.273Z,25.10
2018-05-29T00:34:42.186Z,25.10
2018-05-29T00:37:10.283Z,25.10
2018-05-29T00:39:39.181Z,25.00
2018-05-29T00:42:08.846Z,25.00
2018-05-29T00:44:38.565Z,24.90
2018-05-29T00:47:07.576Z,24.90
2018-05-29T00:49:35.713Z,24.90
2018-05-29T00:52:03.853Z,24.80
2018-05-29T00:54:31.976Z,24.80
2018-05-29T00:57:00.150Z,24.80
2018-05-29T00:59:29.036Z,24.70
2018-05-29T01:01:57.921Z,24.60
2018-05-29T01:04:26.109Z,24.60
2018-05-29T01:06:54.255Z,24.60
2018-05-29T01:09:22.402Z,24.60
2018-05-29T01:11:50.560Z,24.50
2018-05-29T01:14:19.450Z,24.50
2018-05-29T01:16:48.427Z,24.40
2018-05-29T01:19:16.548Z,24.40
2018-05-29T01:21:44.698Z,24.40
2018-05-29T01:24:12.869Z,24.40
2018-05-29T01:26:41.012Z,24.40
2018-05-29T01:29:11.112Z,24.40
2018-05-29T01:31:39.288Z,24.40
2018-05-29T01:34:07.396Z,24.30
2018-05-29T01:36:35.519Z,24.30
2018-05-29T01:39:03.643Z,24.30
2018-05-29T01:41:31.796Z,24.30
2018-05-29T01:43:59.947Z,24.30
2018-05-29T01:46:28.817Z,24.20
2018-05-29T01:48:56.967Z,24.20
2018-05-29T01:51:25.123Z,24.20
2018-05-29T01:53:53.262Z,24.10
2018-05-29T01:56:21.384Z,24.10
2018-05-29T01:58:49.519Z,24.10
2018-05-29T02:01:18.454Z,24.00
2018-05-29T02:03:46.596Z,24.00
2018-05-29T02:06:14.749Z,24.00
2018-05-29T02:08:42.904Z,24.00
2018-05-29T02:11:11.079Z,24.00
2018-05-29T02:13:39.263Z,23.90
2018-05-29T02:16:07.438Z,23.90
2018-05-29T02:18:35.581Z,23.90
2018-05-29T02:21:03.687Z,23.80
2018-05-29T02:23:31.814Z,23.80
2018-05-29T02:25:59.955Z,23.80
2018-05-29T02:28:28.089Z,23.80
2018-05-29T02:30:56.241Z,23.70
2018-05-29T02:33:24.361Z,23.70
2018-05-29T02:35:52.524Z,23.70
2018-05-29T02:38:20.677Z,23.70
2018-05-29T02:40:48.795Z,23.70
2018-05-29T02:43:16.952Z,23.70
2018-05-29T02:45:45.867Z,23.60
2018-05-29T02:48:14.021Z,23.60
2018-05-29T02:50:42.179Z,23.60
2018-05-29T02:53:10.307Z,23.50
2018-05-29T02:55:38.437Z,23.50
2018-05-29T02:58:06.617Z,23.40
2018-05-29T03:00:34.761Z,23.40
2018-05-29T03:03:03.652Z,23.30
2018-05-29T03:05:31.797Z,23.30
2018-05-29T03:08:00.007Z,23.30
2018-05-29T03:10:28.861Z,23.20
2018-05-29T03:12:57.751Z,23.20
2018-05-29T03:15:25.950Z,23.20
2018-05-29T03:17:54.120Z,23.20
2018-05-29T03:20:22.251Z,23.20
2018-05-29T03:22:50.383Z,23.10
2018-05-29T03:25:18.548Z,23.10
2018-05-29T03:27:46.746Z,23.10
2018-05-29T03:30:14.903Z,23.10
2018-05-29T03:32:43.035Z,23.10
2018-05-29T03:35:11.215Z,23.10
2018-05-29T03:37:39.342Z,23.10
2018-05-29T03:40:07.589Z,23.10
2018-05-29T03:42:35.712Z,23.10
2018-05-29T03:45:03.932Z,23.00
2018-05-29T03:47:32.086Z,23.00
2018-05-29T03:50:00.218Z,23.00
2018-05-29T03:52:29.121Z,22.90
2018-05-29T03:54:58.027Z,22.90
2018-05-29T03:57:26.160Z,22.90
2018-05-29T03:59:54.299Z,22.90
2018-05-29T04:02:22.462Z,22.90
2018-05-29T04:04:50.594Z,22.90
2018-05-29T04:07:18.740Z,22.90
2018-05-29T04:09:47.700Z,22.80
2018-05-29T04:12:15.837Z,22.80
2018-05-29T04:14:43.973Z,22.80
2018-05-29T04:17:12.171Z,22.80
2018-05-29T04:19:40.295Z,22.80
2018-05-29T04:22:09.464Z,22.70
2018-05-29T04:24:37.613Z,22.70
2018-05-29T04:27:05.776Z,22.70
2018-05-29T04:29:33.930Z,22.70
2018-05-29T04:32:03.133Z,22.80
2018-05-29T04:34:31.290Z,22.70
2018-05-29T04:36:59.448Z,22.80
2018-05-29T04:39:27.557Z,22.80
2018-05-29T04:41:55.702Z,22.80
2018-05-29T04:44:23.915Z,22.90
2018-05-29T04:46:52.229Z,22.90
2018-05-29T04:49:20.412Z,23.00
2018-05-29T04:51:48.543Z,23.00
2018-05-29T04:54:16.702Z,23.10
2018-05-29T04:56:44.947Z,23.10
2018-05-29T04:59:13.077Z,23.20
2018-05-29T05:01:41.980Z,23.50
2018-05-29T05:04:10.894Z,23.60
2018-05-29T05:06:39.812Z,23.70
2018-05-29T05:09:08.018Z,23.70
2018-05-29T05:11:36.247Z,23.80
2018-05-29T05:14:04.892Z,23.90
2018-05-29T05:16:33.902Z,24.00
2018-05-29T05:19:02.036Z,24.10
2018-05-29T05:21:30.142Z,24.30
2018-05-29T05:23:58.268Z,24.40
2018-05-29T05:26:26.402Z,24.60
2018-05-29T05:28:54.532Z,24.60
2018-05-29T05:31:22.880Z,24.70
2018-05-29T05:33:51.529Z,24.90
2018-05-29T05:36:20.453Z,25.10
2018-05-29T05:38:48.671Z,25.10
2018-05-29T05:41:17.060Z,25.20
2018-05-29T05:43:45.235Z,25.30
2018-05-29T05:46:14.322Z,25.50
2018-05-29T05:48:42.939Z,25.70
2018-05-29T05:51:11.223Z,25.80
2018-05-29T05:53:39.395Z,25.90
2018-05-29T05:56:08.238Z,26.10
2018-05-29T05:58:37.376Z,26.30
2018-05-29T06:01:05.621Z,26.40
2018-05-29T06:03:34.520Z,26.80
2018-05-29T06:06:02.730Z,26.80
2018-05-29T06:08:30.898Z,27.00
2018-05-29T06:10:59.039Z,27.10
2018-05-29T06:13:27.162Z,27.30
2018-05-29T06:15:55.306Z,27.50
2018-05-29T06:18:24.219Z,27.70
2018-05-29T06:20:53.105Z,27.90
2018-05-29T06:23:22.349Z,28.10
2018-05-29T06:25:50.473Z,28.10
2018-05-29T06:28:18.611Z,28.20
2018-05-29T06:30:46.757Z,28.30
2018-05-29T06:33:14.930Z,28.50
2018-05-29T06:35:43.043Z,28.60
2018-05-29T06:38:11.283Z,28.70
2018-05-29T06:40:39.327Z,28.80
2018-05-29T06:43:07.479Z,28.90
2018-05-29T06:45:35.595Z,29.00
2018-05-29T06:48:04.056Z,29.10
2018-05-29T06:50:32.212Z,29.20
2018-05-29T06:53:00.331Z,29.40
2018-05-29T06:55:29.229Z,29.50
2018-05-29T06:57:58.161Z,29.60
2018-05-29T07:00:26.348Z,29.60
2018-05-29T07:02:54.456Z,29.80
2018-05-29T07:05:22.589Z,29.90
2018-05-29T07:07:50.708Z,30.00
2018-05-29T07:10:18.839Z,30.10
2018-05-29T07:12:46.974Z,30.20
2018-05-29T07:15:15.113Z,30.30
2018-05-29T07:17:43.265Z,30.50
2018-05-29T07:20:11.421Z,30.60
2018-05-29T07:22:40.306Z,30.90
2018-05-29T07:25:08.703Z,30.80
2018-05-29T07:27:36.813Z,31.00
2018-05-29T07:30:07.421Z,31.10
2018-05-29T07:32:35.681Z,31.30
2018-05-29T07:35:05.538Z,31.50
2018-05-29T07:37:33.691Z,31.50
2018-05-29T07:40:01.846Z,31.60
2018-05-29T07:42:29.964Z,31.80
2018-05-29T07:44:58.107Z,31.90
2018-05-29T07:47:26.251Z,32.00
2018-05-29T07:49:54.352Z,32.20
2018-05-29T07:52:22.659Z,32.30
2018-05-29T07:54:51.516Z,32.50
2018-05-29T07:57:19.845Z,32.70
2018-05-29T07:59:48.761Z,33.10
2018-05-29T08:02:16.945Z,33.00
2018-05-29T08:04:45.097Z,33.30
2018-05-29T08:07:13.228Z,33.40
2018-05-29T08:09:41.440Z,33.70
2018-05-29T08:12:09.614Z,33.80
2018-05-29T08:14:37.771Z,33.90
2018-05-29T08:17:06.031Z,34.10
2018-05-29T08:19:34.185Z,34.20
2018-05-29T08:22:02.321Z,34.30
2018-05-29T08:24:31.303Z,34.60
2018-05-29T08:26:59.693Z,34.60
2018-05-29T08:29:27.817Z,34.70
2018-05-29T08:31:55.948Z,34.80
2018-05-29T08:34:24.071Z,34.90
2018-05-29T08:36:52.216Z,35.00
2018-05-29T08:39:21.204Z,35.30
2018-05-29T08:41:49.292Z,35.20
2018-05-29T08:44:18.201Z,35.40
2018-05-29T08:46:46.347Z,35.40
2018-05-29T08:49:14.980Z,35.60
2018-05-29T08:51:43.100Z,35.70
2018-05-29T08:54:11.227Z,35.80
2018-05-29T08:56:40.040Z,35.80
2018-05-29T08:59:08.215Z,36.00
2018-05-29T09:01:36.353Z,36.10
2018-05-29T09:04:06.267Z,36.20
2018-05-29T09:06:35.062Z,36.30
2018-05-29T09:09:03.777Z,36.40
2018-05-29T09:11:31.896Z,36.60
2018-05-29T09:14:00.065Z,36.60
2018-05-29T09:16:28.189Z,36.80
2018-05-29T09:18:57.118Z,37.00
2018-05-29T09:21:26.151Z,37.00
2018-05-29T09:23:54.356Z,37.10
2018-05-29T09:26:23.549Z,37.30
2018-05-29T09:28:51.677Z,37.20
2018-05-29T09:31:19.828Z,37.40
2018-05-29T09:33:48.715Z,37.70
2018-05-29T09:36:17.396Z,37.70
2018-05-29T09:38:45.541Z,37.80
2018-05-29T09:41:13.681Z,37.90
2018-05-29T09:43:41.798Z,38.00
2018-05-29T09:46:09.930Z,38.20
2018-05-29T09:48:38.887Z,38.40
2018-05-29T09:51:07.019Z,38.40
2018-05-29T09:53:35.800Z,38.40
2018-05-29T09:56:03.944Z,38.50
2018-05-29T09:58:32.090Z,38.60
2018-05-29T10:01:01.051Z,38.70
2018-05-29T10:03:29.167Z,38.80
2018-05-29T10:05:57.362Z,38.90
2018-05-29T10:08:25.515Z,39.00
2018-05-29T10:10:53.686Z,39.00
2018-05-29T10:13:22.549Z,39.10
2018-05-29T10:15:50.735Z,39.20
2018-05-29T10:18:18.909Z,39.20
2018-05-29T10:20:47.046Z,39.20
2018-05-29T10:23:15.184Z,39.10
2018-05-29T10:25:43.309Z,39.10
2018-05-29T10:28:11.772Z,39.00
2018-05-29T10:30:39.939Z,39.00
2018-05-29T10:33:08.094Z,39.00
2018-05-29T10:35:36.215Z,39.00
2018-05-29T10:38:04.373Z,39.10
2018-05-29T10:40:32.535Z,39.10
2018-05-29T10:43:00.681Z,39.20
2018-05-29T10:45:29.573Z,39.30
2018-05-29T10:47:57.717Z,39.40
2018-05-29T10:50:25.838Z,39.40
2018-05-29T10:52:53.965Z,39.50
2018-05-29T10:55:22.104Z,39.50
2018-05-29T10:57:50.242Z,39.50
2018-05-29T11:00:18.395Z,39.50
2018-05-29T11:02:46.541Z,39.50
2018-05-29T11:05:14.970Z,39.40
2018-05-29T11:07:43.095Z,39.40
2018-05-29T11:10:11.260Z,39.40
2018-05-29T11:12:39.404Z,39.40
2018-05-29T11:15:08.317Z,39.50
2018-05-29T11:17:37.219Z,39.40
2018-05-29T11:20:05.406Z,39.40
2018-05-29T11:22:33.541Z,39.40
2018-05-29T11:25:01.665Z,39.40
2018-05-29T11:27:29.800Z,39.40
2018-05-29T11:29:57.959Z,39.30
2018-05-29T11:32:26.325Z,39.30
2018-05-29T11:34:54.502Z,39.30
2018-05-29T11:37:22.651Z,39.20
2018-05-29T11:39:50.816Z,39.20
2018-05-29T11:42:19.885Z,39.20
2018-05-29T11:44:48.004Z,39.10
2018-05-29T11:47:16.147Z,39.20
2018-05-29T11:49:44.283Z,39.20
2018-05-29T11:52:12.401Z,39.20
2018-05-29T11:54:40.772Z,39.20
2018-05-29T11:57:08.897Z,39.20
2018-05-29T11:59:37.144Z,39.30
2018-05-29T12:02:05.295Z,39.30
2018-05-29T12:04:33.407Z,39.40
2018-05-29T12:07:01.551Z,39.40
2018-05-29T12:09:29.657Z,39.50
2018-05-29T12:12:09.792Z,39.50
2018-05-29T12:14:37.927Z,39.60
2018-05-29T12:17:06.044Z,39.60
2018-05-29T12:19:34.244Z,39.70
2018-05-29T12:22:03.220Z,39.80
2018-05-29T12:24:31.348Z,39.80
2018-05-29T12:26:59.510Z,39.80
2018-05-29T12:29:28.677Z,40.00
2018-05-29T12:31:56.770Z,39.90
2018-05-29T12:34:24.902Z,39.90
2018-05-29T12:36:53.032Z,39.80
2018-05-29T12:39:21.178Z,39.80
2018-05-29T12:41:49.318Z,39.90
2018-05-29T12:44:17.454Z,39.80
2018-05-29T12:46:45.576Z,39.90
2018-05-29T12:49:13.702Z,39.90
2018-05-29T12:51:41.856Z,39.90
2018-05-29T12:54:10.769Z,39.90
2018-05-29T12:56:38.876Z,39.90
2018-05-29T12:59:07.837Z,39.90
2018-05-29T13:01:36.219Z,39.90
2018-05-29T13:04:04.345Z,39.90
2018-05-29T13:06:32.450Z,39.90
2018-05-29T13:09:01.377Z,39.80
2018-05-29T13:11:29.762Z,39.80
2018-05-29T13:13:57.867Z,39.90
2018-05-29T13:16:26.757Z,40.00
2018-05-29T13:18:54.896Z,39.90
2018-05-29T13:21:23.034Z,40.00
2018-05-29T13:23:51.255Z,40.10
2018-05-29T13:26:19.652Z,40.00
2018-05-29T13:28:47.805Z,39.90
2018-05-29T13:31:15.933Z,39.90
2018-05-29T13:33:44.844Z,39.90
2018-05-29T13:36:13.172Z,39.80
2018-05-29T13:38:42.104Z,39.90
2018-05-29T13:41:10.857Z,39.90
2018-05-29T13:43:39.008Z,39.90
2018-05-29T13:46:07.129Z,39.90
2018-05-29T13:48:35.616Z,39.90
2018-05-29T13:51:04.125Z,40.10
2018-05-29T13:53:33.000Z,40.10
2018-05-29T13:56:01.145Z,40.10
2018-05-29T13:58:29.263Z,40.10
2018-05-29T14:00:57.424Z,40.10
2018-05-29T14:03:25.606Z,40.00
2018-05-29T14:05:53.687Z,39.90
2018-05-29T14:08:21.813Z,39.90
2018-05-29T14:10:49.964Z,39.80
2018-05-29T14:13:18.109Z,39.80
2018-05-29T14:15:46.262Z,39.80
2018-05-29T14:18:14.388Z,39.80
2018-05-29T14:20:43.301Z,39.80
2018-05-29T14:23:11.394Z,39.70
2018-05-29T14:25:39.526Z,39.70
2018-05-29T14:28:08.435Z,39.80
2018-05-29T14:30:37.307Z,39.70
2018-05-29T14:33:05.442Z,39.70
2018-05-29T14:35:33.557Z,39.60
2018-05-29T14:38:01.693Z,39.70
2018-05-29T14:40:29.822Z,39.50
2018-05-29T14:42:57.985Z,39.60
2018-05-29T14:45:26.113Z,39.50
2018-05-29T14:47:54.228Z,39.50
2018-05-29T14:50:22.369Z,39.50
2018-05-29T14:52:50.518Z,39.50
2018-05-29T14:55:19.427Z,39.50
2018-05-29T14:57:47.590Z,39.40
2018-05-29T15:00:16.489Z,39.50
2018-05-29T15:02:44.619Z,39.40
2018-05-29T15:05:12.760Z,39.40
2018-05-29T15:07:40.936Z,39.40
2018-05-29T15:10:09.281Z,39.30
2018-05-29T15:12:37.428Z,39.40
2018-05-29T15:15:05.642Z,39.40
2018-05-29T15:17:33.822Z,39.40
2018-05-29T15:20:02.771Z,39.30
2018-05-29T15:22:30.937Z,39.30
2018-05-29T15:24:59.837Z,39.20
2018-05-29T15:27:27.910Z,39.20
2018-05-29T15:29:56.033Z,39.20
2018-05-29T15:32:24.153Z,39.20
2018-05-29T15:34:52.291Z,39.10
2018-05-29T15:37:20.407Z,39.10
2018-05-29T15:39:48.545Z,39.10
2018-05-29T15:42:16.662Z,39.20
2018-05-29T15:44:44.847Z,39.20
2018-05-29T15:47:13.708Z,39.20
2018-05-29T15:49:41.836Z,39.20
2018-05-29T15:52:10.844Z,39.10
2018-05-29T15:54:39.598Z,39.10
2018-05-29T15:57:07.720Z,39.00
2018-05-29T15:59:35.864Z,39.00
2018-05-29T16:02:04.036Z,39.00
2018-05-29T16:04:32.189Z,39.00
2018-05-29T16:07:00.419Z,39.00
2018-05-29T16:09:28.507Z,38.90
2018-05-29T16:11:56.634Z,38.90
2018-05-29T16:14:24.775Z,38.90
2018-05-29T16:16:53.004Z,38.80
2018-05-29T16:19:21.295Z,38.80
2018-05-29T16:21:49.421Z,38.70
2018-05-29T16:24:17.665Z,38.60
2018-05-29T16:26:46.499Z,38.30
2018-05-29T16:29:14.639Z,38.30
2018-05-29T16:31:42.757Z,38.20
2018-05-29T16:34:11.661Z,37.90
2018-05-29T16:36:40.622Z,37.80
2018-05-29T16:39:08.695Z,37.70
2018-05-29T16:41:36.793Z,37.60
2018-05-29T16:44:04.966Z,37.50
2018-05-29T16:46:33.193Z,37.40
2018-05-29T16:49:01.368Z,37.10
2018-05-29T16:51:29.437Z,37.00
2018-05-29T16:53:57.587Z,36.70
2018-05-29T16:56:27.386Z,36.30
2018-05-29T16:58:55.567Z,36.20
2018-05-29T17:01:23.698Z,36.00
2018-05-29T17:03:52.405Z,35.90
2018-05-29T17:06:20.969Z,35.70
2018-05-29T17:08:49.251Z,35.50
2018-05-29T17:11:17.511Z,35.40
2018-05-29T17:13:46.425Z,35.00
2018-05-29T17:16:16.547Z,35.00
2018-05-29T17:18:45.768Z,34.80
2018-05-29T17:21:13.860Z,34.70
2018-05-29T17:23:41.985Z,34.50
2018-05-29T17:26:10.872Z,34.30
2018-05-29T17:28:39.807Z,34.20
2018-05-29T17:31:08.147Z,34.20
2018-05-29T17:33:36.266Z,34.10
2018-05-29T17:36:04.408Z,34.00
2018-05-29T17:38:32.570Z,33.90
2018-05-29T17:41:01.503Z,33.80
2018-05-29T17:43:29.663Z,33.80
2018-05-29T17:45:58.347Z,33.70
2018-05-29T17:48:27.354Z,33.70
2018-05-29T17:50:55.619Z,33.60
2018-05-29T17:53:24.008Z,33.50
2018-05-29T17:55:53.564Z,33.50
2018-05-29T17:58:21.773Z,33.30
2018-05-29T18:00:50.001Z,33.30
2018-05-29T18:03:18.157Z,33.20
2018-05-29T18:05:46.304Z,33.10
2018-05-29T18:08:14.413Z,33.00
2018-05-29T18:10:43.291Z,32.80
2018-05-29T18:13:11.414Z,32.80
2018-05-29T18:15:39.684Z,32.70
2018-05-29T18:18:07.877Z,32.60
2018-05-29T18:20:36.380Z,32.50
2018-05-29T18:23:04.535Z,32.30
2018-05-29T18:25:32.753Z,32.00
2018-05-29T18:28:00.863Z,31.80
2018-05-29T18:30:28.993Z,31.50
2018-05-29T18:32:57.112Z,31.30
2018-05-29T18:35:26.011Z,30.90
2018-05-29T18:37:54.117Z,30.80
2018-05-29T18:40:22.259Z,30.70
2018-05-29T18:42:51.158Z,30.20
2018-05-29T18:45:20.401Z,30.00
2018-05-29T18:47:48.641Z,30.00
2018-05-29T18:50:16.836Z,29.80
2018-05-29T18:52:44.872Z,29.70
2018-05-29T18:55:13.003Z,29.50
2018-05-29T18:57:41.157Z,29.40
2018-05-29T19:00:09.982Z,29.30
2018-05-29T19:02:39.037Z,29.20
2018-05-29T19:05:08.830Z,28.90
2018-05-29T19:07:37.877Z,28.90
2018-05-29T19:10:06.276Z,28.80
2018-05-29T19:12:35.663Z,28.70
2018-05-29T19:15:04.814Z,28.60
2018-05-29T19:17:34.035Z,28.50
2018-05-29T19:20:02.937Z,28.50
2018-05-29T19:22:34.635Z,28.40
2018-05-29T19:25:03.819Z,28.40
2018-05-29T19:27:31.936Z,28.40
2018-05-29T19:30:00.050Z,28.40
2018-05-29T19:32:28.196Z,28.30
2018-05-29T19:34:57.560Z,28.30
2018-05-29T19:37:25.791Z,28.30
2018-05-29T19:39:53.956Z,28.20
2018-05-29T19:42:22.077Z,28.20
2018-05-29T19:44:50.290Z,28.10
2018-05-29T19:47:18.319Z,28.30
2018-05-29T19:49:47.240Z,28.10
2018-05-29T19:52:15.381Z,28.10
2018-05-29T19:54:44.281Z,28.00
2018-05-29T19:57:12.385Z,28.00
2018-05-29T19:59:40.503Z,28.00
2018-05-29T20:02:08.644Z,27.90
2018-05-29T20:04:36.761Z,27.90
2018-05-29T20:07:04.940Z,27.80
2018-05-29T20:09:33.435Z,27.80
2018-05-29T20:12:01.656Z,27.70
2018-05-29T20:14:29.814Z,27.70
2018-05-29T20:16:58.685Z,27.60
2018-05-29T20:19:27.976Z,27.60
2018-05-29T20:21:56.089Z,27.50
2018-05-29T20:24:24.300Z,27.50
2018-05-29T20:26:52.545Z,27.40
2018-05-29T20:29:21.419Z,27.40
2018-05-29T20:31:49.520Z,27.30
2018-05-29T20:34:18.420Z,27.20
2018-05-29T20:36:46.615Z,27.20
2018-05-29T20:39:14.669Z,27.20
2018-05-29T20:41:42.819Z,27.10
2018-05-29T20:44:10.962Z,27.00
2018-05-29T20:46:39.107Z,27.00
2018-05-29T20:49:07.254Z,27.00
2018-05-29T20:51:35.356Z,26.80
2018-05-29T20:54:04.840Z,26.60
2018-05-29T20:56:33.732Z,26.50
2018-05-29T20:59:01.913Z,26.50
2018-05-29T21:01:30.211Z,26.40
2018-05-29T21:03:59.089Z,26.30
2018-05-29T21:06:27.404Z,26.20
2018-05-29T21:08:56.332Z,26.10
2018-05-29T21:11:24.462Z,26.10
2018-05-29T21:13:53.791Z,26.10
2018-05-29T21:16:21.985Z,26.10
2018-05-29T21:18:50.112Z,26.00
2018-05-29T21:21:18.567Z,26.00
2018-05-29T21:23:46.660Z,25.90
2018-05-29T21:26:14.780Z,25.90
2018-05-29T21:28:42.937Z,25.80
2018-05-29T21:31:11.093Z,25.70
2018-05-29T21:33:39.226Z,25.70
2018-05-29T21:36:07.376Z,25.60
2018-05-29T21:38:35.556Z,25.60
2018-05-29T21:41:04.958Z,25.50
2018-05-29T21:43:33.845Z,25.50
2018-05-29T21:46:03.665Z,25.40
2018-05-29T21:48:32.560Z,25.40
2018-05-29T21:51:01.453Z,25.30
2018-05-29T21:53:30.345Z,25.30
2018-05-29T21:55:59.227Z,25.20
2018-05-29T21:58:27.345Z,25.20
2018-05-29T22:00:55.497Z,25.20
2018-05-29T22:03:23.651Z,25.10
2018-05-29T22:05:51.753Z,25.10
2018-05-29T22:08:19.880Z,25.10
2018-05-29T22:10:48.011Z,25.10
2018-05-29T22:13:16.126Z,25.00
2018-05-29T22:15:45.007Z,25.00
2018-05-29T22:18:13.147Z,25.00
2018-05-29T22:20:42.039Z,25.00
2018-05-29T22:23:10.154Z,25.00
2018-05-29T22:25:38.270Z,25.00
2018-05-29T22:28:06.413Z,25.00
2018-05-29T22:30:34.515Z,25.00
2018-05-29T22:33:02.625Z,24.90
2018-05-29T22:35:31.521Z,24.90
2018-05-29T22:37:59.657Z,24.90
2018-05-29T22:40:27.758Z,24.90
2018-05-29T22:42:55.901Z,24.90
2018-05-29T22:45:24.015Z,24.80
2018-05-29T22:47:52.111Z,24.80
2018-05-29T22:50:20.257Z,24.70
2018-05-29T22:52:48.395Z,24.70
2018-05-29T22:55:16.522Z,24.70
2018-05-29T22:57:44.661Z,24.60
2018-05-29T23:00:12.790Z,24.60
2018-05-29T23:02:40.897Z,24.60
2018-05-29T23:05:09.025Z,24.60
2018-05-29T23:07:37.183Z,24.60
2018-05-29T23:10:06.089Z,24.50
2018-05-29T23:12:34.205Z,24.50
2018-05-29T23:15:04.013Z,24.50
2018-05-29T23:17:32.145Z,24.40
2018-05-29T23:20:00.251Z,24.40
2018-05-29T23:22:28.379Z,24.40
2018-05-29T23:24:56.511Z,24.40
2018-05-29T23:27:25.427Z,24.40
2018-05-29T23:29:53.532Z,24.40
2018-05-29T23:32:21.728Z,24.40
2018-05-29T23:34:49.839Z,24.40
2018-05-29T23:37:18.720Z,24.30
2018-05-29T23:39:46.849Z,24.30
2018-05-29T23:42:15.057Z,24.30
2018-05-29T23:44:43.149Z,24.30
2018-05-29T23:47:11.279Z,24.30
2018-05-29T23:49:39.385Z,24.30
2018-05-29T23:52:07.526Z,24.30
2018-05-29T23:54:35.632Z,24.20
2018-05-29T23:57:03.748Z,24.20
2018-05-29T23:59:32.640Z,24.20
